sensor_id;sensor_type;location;lat;lon;timestamp;P1;durP1;ratioP1;P2;durP2;ratioP2
28988;SDS011;16089;59.952;10.818;2022-12-28T00:00:23;8.65;;;2.60;;
28988;SDS011;16089;59.952;10.818;2022-12-28T00:02:49;13.52;;;2.80;;
28988;SDS011;16089;59.952;10.818;2022-12-28T00:05:15;8.23;;;2.60;;
28988;SDS011;16089;59.952;10.818;2022-12-28T00:07:42;7.97;;;2.03;;
28988;SDS011;16089;59.952;10.818;2022-12-28T00:10:08;6.68;;;2.78;;
28988;SDS011;16089;59.952;10.818;2022-12-28T00:12:36;12.30;;;3.47;;
28988;SDS011;16089;59.952;10.818;2022-12-28T00:15:02;8.00;;;2.63;;
28988;SDS011;16089;59.952;10.818;2022-12-28T00:17:29;9.75;;;2.95;;
28988;SDS011;16089;59.952;10.818;2022-12-28T00:19:55;8.43;;;2.35;;
28988;SDS011;16089;59.952;10.818;2022-12-28T00:22:23;7.32;;;2.28;;
28988;SDS011;16089;59.952;10.818;2022-12-28T00:24:49;7.78;;;2.40;;
28988;SDS011;16089;59.952;10.818;2022-12-28T00:27:15;6.95;;;2.20;;
28988;SDS011;16089;59.952;10.818;2022-12-28T00:29:43;9.60;;;3.08;;
28988;SDS011;16089;59.952;10.818;2022-12-28T00:32:09;6.25;;;2.38;;
28988;SDS011;16089;59.952;10.818;2022-12-28T00:34:35;6.47;;;2.13;;
28988;SDS011;16089;59.952;10.818;2022-12-28T00:37:02;8.07;;;2.08;;
28988;SDS011;16089;59.952;10.818;2022-12-28T00:39:28;5.95;;;2.20;;
28988;SDS011;16089;59.952;10.818;2022-12-28T00:41:54;9.05;;;2.38;;
28988;SDS011;16089;59.952;10.818;2022-12-28T00:44:20;5.57;;;1.63;;
28988;SDS011;16089;59.952;10.818;2022-12-28T00:46:48;6.38;;;2.08;;
28988;SDS011;16089;59.952;10.818;2022-12-28T00:49:14;9.32;;;2.10;;
28988;SDS011;16089;59.952;10.818;2022-12-28T00:51:41;4.88;;;1.95;;
28988;SDS011;16089;59.952;10.818;2022-12-28T00:54:07;5.57;;;1.77;;
28988;SDS011;16089;59.952;10.818;2022-12-28T00:56:33;6.72;;;1.80;;
28988;SDS011;16089;59.952;10.818;2022-12-28T00:59:00;6.03;;;1.70;;
28988;SDS011;16089;59.952;10.818;2022-12-28T01:01:26;7.28;;;2.03;;
28988;SDS011;16089;59.952;10.818;2022-12-28T01:03:55;5.47;;;1.70;;
28988;SDS011;16089;59.952;10.818;2022-12-28T01:06:21;4.50;;;1.38;;
28988;SDS011;16089;59.952;10.818;2022-12-28T01:08:47;7.15;;;1.98;;
28988;SDS011;16089;59.952;10.818;2022-12-28T01:11:15;7.25;;;1.67;;
28988;SDS011;16089;59.952;10.818;2022-12-28T01:13:42;5.43;;;1.50;;
28988;SDS011;16089;59.952;10.818;2022-12-28T01:16:09;5.95;;;2.00;;
28988;SDS011;16089;59.952;10.818;2022-12-28T01:18:35;6.72;;;1.88;;
28988;SDS011;16089;59.952;10.818;2022-12-28T01:21:07;5.13;;;1.83;;
28988;SDS011;16089;59.952;10.818;2022-12-28T01:23:34;3.95;;;1.60;;
28988;SDS011;16089;59.952;10.818;2022-12-28T01:26:00;4.55;;;1.60;;
28988;SDS011;16089;59.952;10.818;2022-12-28T01:28:27;6.85;;;1.73;;
28988;SDS011;16089;59.952;10.818;2022-12-28T01:30:53;7.22;;;1.67;;
28988;SDS011;16089;59.952;10.818;2022-12-28T01:33:19;6.63;;;1.70;;
28988;SDS011;16089;59.952;10.818;2022-12-28T01:35:45;6.57;;;1.70;;
28988;SDS011;16089;59.952;10.818;2022-12-28T01:38:13;7.53;;;1.67;;
28988;SDS011;16089;59.952;10.818;2022-12-28T01:40:40;5.90;;;1.95;;
28988;SDS011;16089;59.952;10.818;2022-12-28T01:43:09;5.80;;;1.52;;
28988;SDS011;16089;59.952;10.818;2022-12-28T01:45:37;3.38;;;1.30;;
28988;SDS011;16089;59.952;10.818;2022-12-28T01:48:03;5.05;;;1.50;;
28988;SDS011;16089;59.952;10.818;2022-12-28T01:50:30;5.07;;;1.40;;
28988;SDS011;16089;59.952;10.818;2022-12-28T01:52:57;3.92;;;1.30;;
28988;SDS011;16089;59.952;10.818;2022-12-28T01:55:26;4.25;;;1.80;;
28988;SDS011;16089;59.952;10.818;2022-12-28T01:57:53;7.07;;;3.13;;
28988;SDS011;16089;59.952;10.818;2022-12-28T02:00:20;7.75;;;2.00;;
28988;SDS011;16089;59.952;10.818;2022-12-28T02:02:48;5.07;;;1.58;;
28988;SDS011;16089;59.952;10.818;2022-12-28T02:05:17;6.63;;;1.30;;
28988;SDS011;16089;59.952;10.818;2022-12-28T02:07:45;4.28;;;1.40;;
28988;SDS011;16089;59.952;10.818;2022-12-28T02:10:12;3.88;;;1.13;;
28988;SDS011;16089;59.952;10.818;2022-12-28T02:12:41;4.53;;;1.35;;
28988;SDS011;16089;59.952;10.818;2022-12-28T02:15:08;4.55;;;1.20;;
28988;SDS011;16089;59.952;10.818;2022-12-28T02:17:34;3.97;;;1.25;;
28988;SDS011;16089;59.952;10.818;2022-12-28T02:20:00;3.40;;;1.05;;
28988;SDS011;16089;59.952;10.818;2022-12-28T02:22:42;5.00;;;1.52;;
28988;SDS011;16089;59.952;10.818;2022-12-28T02:25:20;6.47;;;1.50;;
28988;SDS011;16089;59.952;10.818;2022-12-28T02:27:56;5.43;;;1.45;;
28988;SDS011;16089;59.952;10.818;2022-12-28T02:30:26;4.35;;;1.05;;
28988;SDS011;16089;59.952;10.818;2022-12-28T02:32:54;8.13;;;1.50;;
28988;SDS011;16089;59.952;10.818;2022-12-28T02:35:25;4.00;;;1.27;;
28988;SDS011;16089;59.952;10.818;2022-12-28T02:37:54;3.33;;;1.38;;
28988;SDS011;16089;59.952;10.818;2022-12-28T02:40:23;4.30;;;1.25;;
28988;SDS011;16089;59.952;10.818;2022-12-28T02:42:51;3.80;;;1.38;;
28988;SDS011;16089;59.952;10.818;2022-12-28T02:45:29;5.70;;;1.40;;
28988;SDS011;16089;59.952;10.818;2022-12-28T02:48:13;4.65;;;1.30;;
28988;SDS011;16089;59.952;10.818;2022-12-28T02:50:59;4.87;;;1.07;;
28988;SDS011;16089;59.952;10.818;2022-12-28T02:53:33;3.28;;;1.20;;
28988;SDS011;16089;59.952;10.818;2022-12-28T02:56:10;5.05;;;1.17;;
28988;SDS011;16089;59.952;10.818;2022-12-28T02:58:52;5.95;;;1.20;;
28988;SDS011;16089;59.952;10.818;2022-12-28T03:01:27;3.42;;;1.50;;
28988;SDS011;16089;59.952;10.818;2022-12-28T03:03:57;3.90;;;1.10;;
28988;SDS011;16089;59.952;10.818;2022-12-28T03:06:30;4.53;;;1.23;;
28988;SDS011;16089;59.952;10.818;2022-12-28T03:09:18;3.10;;;0.98;;
28988;SDS011;16089;59.952;10.818;2022-12-28T03:11:46;4.20;;;1.27;;
28988;SDS011;16089;59.952;10.818;2022-12-28T03:14:14;3.58;;;1.20;;
28988;SDS011;16089;59.952;10.818;2022-12-28T03:16:44;5.45;;;1.50;;
28988;SDS011;16089;59.952;10.818;2022-12-28T03:19:26;5.95;;;1.30;;
28988;SDS011;16089;59.952;10.818;2022-12-28T03:22:12;6.10;;;1.30;;
28988;SDS011;16089;59.952;10.818;2022-12-28T03:24:56;5.00;;;1.15;;
28988;SDS011;16089;59.952;10.818;2022-12-28T03:27:42;3.30;;;1.10;;
28988;SDS011;16089;59.952;10.818;2022-12-28T03:30:26;6.38;;;1.45;;
28988;SDS011;16089;59.952;10.818;2022-12-28T03:33:11;4.93;;;1.43;;
28988;SDS011;16089;59.952;10.818;2022-12-28T03:35:39;6.15;;;1.15;;
28988;SDS011;16089;59.952;10.818;2022-12-28T03:38:07;5.85;;;1.30;;
28988;SDS011;16089;59.952;10.818;2022-12-28T03:40:38;4.15;;;0.98;;
28988;SDS011;16089;59.952;10.818;2022-12-28T03:43:09;3.83;;;1.20;;
28988;SDS011;16089;59.952;10.818;2022-12-28T03:45:54;5.68;;;1.15;;
28988;SDS011;16089;59.952;10.818;2022-12-28T03:48:22;5.55;;;1.40;;
28988;SDS011;16089;59.952;10.818;2022-12-28T03:50:50;2.25;;;0.90;;
28988;SDS011;16089;59.952;10.818;2022-12-28T03:53:18;2.55;;;1.08;;
28988;SDS011;16089;59.952;10.818;2022-12-28T03:55:45;5.22;;;1.17;;
28988;SDS011;16089;59.952;10.818;2022-12-28T03:58:12;4.40;;;1.45;;
28988;SDS011;16089;59.952;10.818;2022-12-28T04:00:38;3.97;;;1.50;;
28988;SDS011;16089;59.952;10.818;2022-12-28T04:03:04;4.00;;;1.10;;
28988;SDS011;16089;59.952;10.818;2022-12-28T04:05:32;5.07;;;1.00;;
28988;SDS011;16089;59.952;10.818;2022-12-28T04:07:58;4.22;;;1.20;;
28988;SDS011;16089;59.952;10.818;2022-12-28T04:10:24;5.07;;;1.08;;
28988;SDS011;16089;59.952;10.818;2022-12-28T04:12:52;5.53;;;1.45;;
28988;SDS011;16089;59.952;10.818;2022-12-28T04:15:19;3.42;;;1.02;;
28988;SDS011;16089;59.952;10.818;2022-12-28T04:17:45;3.78;;;0.93;;
28988;SDS011;16089;59.952;10.818;2022-12-28T04:20:11;2.55;;;0.77;;
28988;SDS011;16089;59.952;10.818;2022-12-28T04:22:39;4.20;;;0.82;;
28988;SDS011;16089;59.952;10.818;2022-12-28T04:25:05;3.90;;;0.80;;
28988;SDS011;16089;59.952;10.818;2022-12-28T04:27:32;6.20;;;1.10;;
28988;SDS011;16089;59.952;10.818;2022-12-28T04:29:58;1.77;;;0.50;;
28988;SDS011;16089;59.952;10.818;2022-12-28T04:32:24;2.22;;;0.77;;
28988;SDS011;16089;59.952;10.818;2022-12-28T04:34:50;1.55;;;0.52;;
28988;SDS011;16089;59.952;10.818;2022-12-28T04:37:17;2.38;;;0.60;;
28988;SDS011;16089;59.952;10.818;2022-12-28T04:39:44;3.55;;;0.68;;
28988;SDS011;16089;59.952;10.818;2022-12-28T04:42:11;2.42;;;0.47;;
28988;SDS011;16089;59.952;10.818;2022-12-28T04:44:37;5.80;;;0.70;;
28988;SDS011;16089;59.952;10.818;2022-12-28T04:47:03;1.83;;;0.60;;
28988;SDS011;16089;59.952;10.818;2022-12-28T04:49:30;2.00;;;0.50;;
28988;SDS011;16089;59.952;10.818;2022-12-28T04:51:56;2.33;;;0.60;;
28988;SDS011;16089;59.952;10.818;2022-12-28T04:54:22;9.32;;;0.88;;
28988;SDS011;16089;59.952;10.818;2022-12-28T04:56:50;2.60;;;0.50;;
28988;SDS011;16089;59.952;10.818;2022-12-28T04:59:16;3.40;;;0.73;;
28988;SDS011;16089;59.952;10.818;2022-12-28T05:01:42;2.60;;;0.68;;
28988;SDS011;16089;59.952;10.818;2022-12-28T05:04:08;2.83;;;0.40;;
28988;SDS011;16089;59.952;10.818;2022-12-28T05:06:35;4.90;;;0.77;;
28988;SDS011;16089;59.952;10.818;2022-12-28T05:09:01;2.58;;;0.50;;
28988;SDS011;16089;59.952;10.818;2022-12-28T05:11:28;1.48;;;0.30;;
28988;SDS011;16089;59.952;10.818;2022-12-28T05:13:57;2.80;;;0.45;;
28988;SDS011;16089;59.952;10.818;2022-12-28T05:16:24;2.40;;;0.50;;
28988;SDS011;16089;59.952;10.818;2022-12-28T05:18:50;4.15;;;0.70;;
28988;SDS011;16089;59.952;10.818;2022-12-28T05:21:17;2.22;;;0.40;;
28988;SDS011;16089;59.952;10.818;2022-12-28T05:23:44;2.92;;;0.50;;
28988;SDS011;16089;59.952;10.818;2022-12-28T05:26:11;2.65;;;0.50;;
28988;SDS011;16089;59.952;10.818;2022-12-28T05:28:37;3.53;;;0.60;;
28988;SDS011;16089;59.952;10.818;2022-12-28T05:31:06;3.20;;;0.40;;
28988;SDS011;16089;59.952;10.818;2022-12-28T05:33:33;3.47;;;0.47;;
28988;SDS011;16089;59.952;10.818;2022-12-28T05:36:01;3.63;;;0.75;;
28988;SDS011;16089;59.952;10.818;2022-12-28T05:38:27;4.85;;;0.40;;
28988;SDS011;16089;59.952;10.818;2022-12-28T05:40:53;3.08;;;0.98;;
28988;SDS011;16089;59.952;10.818;2022-12-28T05:43:20;2.22;;;0.40;;
28988;SDS011;16089;59.952;10.818;2022-12-28T05:45:46;1.75;;;0.40;;
28988;SDS011;16089;59.952;10.818;2022-12-28T05:48:13;1.95;;;0.50;;
28988;SDS011;16089;59.952;10.818;2022-12-28T05:50:40;3.08;;;0.50;;
28988;SDS011;16089;59.952;10.818;2022-12-28T05:53:06;0.95;;;0.40;;
28988;SDS011;16089;59.952;10.818;2022-12-28T05:55:32;2.22;;;0.55;;
28988;SDS011;16089;59.952;10.818;2022-12-28T05:57:58;2.55;;;0.73;;
28988;SDS011;16089;59.952;10.818;2022-12-28T06:00:25;1.63;;;0.40;;
28988;SDS011;16089;59.952;10.818;2022-12-28T06:02:51;2.88;;;0.40;;
28988;SDS011;16089;59.952;10.818;2022-12-28T06:05:18;2.25;;;0.40;;
28988;SDS011;16089;59.952;10.818;2022-12-28T06:07:45;2.70;;;0.50;;
28988;SDS011;16089;59.952;10.818;2022-12-28T06:10:11;1.23;;;0.40;;
28988;SDS011;16089;59.952;10.818;2022-12-28T06:12:37;3.85;;;0.68;;
28988;SDS011;16089;59.952;10.818;2022-12-28T06:15:04;2.45;;;0.55;;
28988;SDS011;16089;59.952;10.818;2022-12-28T06:17:30;0.30;;;0.22;;
28988;SDS011;16089;59.952;10.818;2022-12-28T06:19:56;4.32;;;0.43;;
28988;SDS011;16089;59.952;10.818;2022-12-28T06:22:24;3.47;;;0.70;;
28988;SDS011;16089;59.952;10.818;2022-12-28T06:24:50;1.95;;;0.32;;
28988;SDS011;16089;59.952;10.818;2022-12-28T06:27:16;3.88;;;0.50;;
28988;SDS011;16089;59.952;10.818;2022-12-28T06:29:43;4.32;;;0.68;;
28988;SDS011;16089;59.952;10.818;2022-12-28T06:32:09;3.03;;;0.55;;
28988;SDS011;16089;59.952;10.818;2022-12-28T06:34:35;3.03;;;0.40;;
28988;SDS011;16089;59.952;10.818;2022-12-28T06:37:01;2.28;;;0.65;;
28988;SDS011;16089;59.952;10.818;2022-12-28T06:39:29;3.85;;;0.50;;
28988;SDS011;16089;59.952;10.818;2022-12-28T06:41:56;2.45;;;0.50;;
28988;SDS011;16089;59.952;10.818;2022-12-28T06:44:22;1.73;;;0.50;;
28988;SDS011;16089;59.952;10.818;2022-12-28T06:46:48;4.35;;;0.40;;
28988;SDS011;16089;59.952;10.818;2022-12-28T06:49:15;2.72;;;0.47;;
28988;SDS011;16089;59.952;10.818;2022-12-28T06:51:41;2.58;;;0.40;;
28988;SDS011;16089;59.952;10.818;2022-12-28T06:54:07;0.50;;;0.20;;
28988;SDS011;16089;59.952;10.818;2022-12-28T06:56:35;3.40;;;0.60;;
28988;SDS011;16089;59.952;10.818;2022-12-28T06:59:02;2.45;;;0.50;;
28988;SDS011;16089;59.952;10.818;2022-12-28T07:01:29;2.95;;;0.70;;
28988;SDS011;16089;59.952;10.818;2022-12-28T07:03:56;2.58;;;0.40;;
28988;SDS011;16089;59.952;10.818;2022-12-28T07:06:24;2.38;;;0.40;;
28988;SDS011;16089;59.952;10.818;2022-12-28T07:08:55;1.58;;;0.63;;
28988;SDS011;16089;59.952;10.818;2022-12-28T07:11:22;3.40;;;0.70;;
28988;SDS011;16089;59.952;10.818;2022-12-28T07:13:50;6.28;;;0.73;;
28988;SDS011;16089;59.952;10.818;2022-12-28T07:16:17;2.10;;;0.73;;
28988;SDS011;16089;59.952;10.818;2022-12-28T07:18:44;2.67;;;0.98;;
28988;SDS011;16089;59.952;10.818;2022-12-28T07:21:13;3.70;;;1.02;;
28988;SDS011;16089;59.952;10.818;2022-12-28T07:23:40;5.68;;;0.90;;
28988;SDS011;16089;59.952;10.818;2022-12-28T07:26:09;3.53;;;0.90;;
28988;SDS011;16089;59.952;10.818;2022-12-28T07:28:36;3.42;;;0.95;;
28988;SDS011;16089;59.952;10.818;2022-12-28T07:31:07;5.80;;;1.02;;
28988;SDS011;16089;59.952;10.818;2022-12-28T07:33:34;2.55;;;0.85;;
28988;SDS011;16089;59.952;10.818;2022-12-28T07:36:01;4.00;;;0.70;;
28988;SDS011;16089;59.952;10.818;2022-12-28T07:38:27;3.20;;;0.80;;
28988;SDS011;16089;59.952;10.818;2022-12-28T07:40:59;4.57;;;0.77;;
28988;SDS011;16089;59.952;10.818;2022-12-28T07:43:25;5.40;;;0.90;;
28988;SDS011;16089;59.952;10.818;2022-12-28T07:45:57;6.05;;;0.98;;
28988;SDS011;16089;59.952;10.818;2022-12-28T07:48:25;4.22;;;1.00;;
28988;SDS011;16089;59.952;10.818;2022-12-28T07:50:51;4.28;;;1.00;;
28988;SDS011;16089;59.952;10.818;2022-12-28T07:53:17;5.00;;;0.90;;
28988;SDS011;16089;59.952;10.818;2022-12-28T07:55:44;5.97;;;1.60;;
28988;SDS011;16089;59.952;10.818;2022-12-28T07:58:10;6.30;;;1.40;;
28988;SDS011;16089;59.952;10.818;2022-12-28T08:00:36;2.08;;;0.85;;
28988;SDS011;16089;59.952;10.818;2022-12-28T08:03:02;3.75;;;1.08;;
28988;SDS011;16089;59.952;10.818;2022-12-28T08:05:30;2.58;;;1.10;;
28988;SDS011;16089;59.952;10.818;2022-12-28T08:07:58;6.07;;;1.15;;
28988;SDS011;16089;59.952;10.818;2022-12-28T08:10:24;5.13;;;1.38;;
28988;SDS011;16089;59.952;10.818;2022-12-28T08:12:50;3.03;;;0.93;;
28988;SDS011;16089;59.952;10.818;2022-12-28T08:15:17;4.68;;;1.20;;
28988;SDS011;16089;59.952;10.818;2022-12-28T08:17:43;3.53;;;1.10;;
28988;SDS011;16089;59.952;10.818;2022-12-28T08:20:09;3.33;;;1.10;;
28988;SDS011;16089;59.952;10.818;2022-12-28T08:22:37;3.35;;;0.82;;
28988;SDS011;16089;59.952;10.818;2022-12-28T08:25:04;4.78;;;0.90;;
28988;SDS011;16089;59.952;10.818;2022-12-28T08:27:30;6.22;;;1.15;;
28988;SDS011;16089;59.952;10.818;2022-12-28T08:29:56;5.93;;;1.05;;
28988;SDS011;16089;59.952;10.818;2022-12-28T08:32:23;3.33;;;1.02;;
28988;SDS011;16089;59.952;10.818;2022-12-28T08:34:49;2.65;;;1.00;;
28988;SDS011;16089;59.952;10.818;2022-12-28T08:37:15;5.07;;;1.00;;
28988;SDS011;16089;59.952;10.818;2022-12-28T08:39:43;3.60;;;1.20;;
28988;SDS011;16089;59.952;10.818;2022-12-28T08:42:09;4.25;;;1.05;;
28988;SDS011;16089;59.952;10.818;2022-12-28T08:44:35;5.43;;;1.10;;
28988;SDS011;16089;59.952;10.818;2022-12-28T08:47:02;2.22;;;0.93;;
28988;SDS011;16089;59.952;10.818;2022-12-28T08:49:28;3.50;;;1.20;;
28988;SDS011;16089;59.952;10.818;2022-12-28T08:51:54;3.35;;;1.40;;
28988;SDS011;16089;59.952;10.818;2022-12-28T08:54:21;3.95;;;1.02;;
28988;SDS011;16089;59.952;10.818;2022-12-28T08:56:48;2.85;;;1.10;;
28988;SDS011;16089;59.952;10.818;2022-12-28T08:59:15;7.57;;;1.40;;
28988;SDS011;16089;59.952;10.818;2022-12-28T09:01:42;4.07;;;1.30;;
28988;SDS011;16089;59.952;10.818;2022-12-28T09:04:10;3.53;;;1.10;;
28988;SDS011;16089;59.952;10.818;2022-12-28T09:06:37;3.50;;;1.30;;
28988;SDS011;16089;59.952;10.818;2022-12-28T09:09:04;2.40;;;1.10;;
28988;SDS011;16089;59.952;10.818;2022-12-28T09:11:30;6.45;;;1.77;;
28988;SDS011;16089;59.952;10.818;2022-12-28T09:13:59;7.25;;;1.15;;
28988;SDS011;16089;59.952;10.818;2022-12-28T09:16:26;3.90;;;1.20;;
28988;SDS011;16089;59.952;10.818;2022-12-28T09:18:53;5.30;;;1.38;;
28988;SDS011;16089;59.952;10.818;2022-12-28T09:21:20;3.38;;;1.00;;
28988;SDS011;16089;59.952;10.818;2022-12-28T09:23:47;3.85;;;1.15;;
28988;SDS011;16089;59.952;10.818;2022-12-28T09:26:14;5.47;;;1.50;;
28988;SDS011;16089;59.952;10.818;2022-12-28T09:28:43;3.95;;;1.20;;
28988;SDS011;16089;59.952;10.818;2022-12-28T09:31:11;3.90;;;1.23;;
28988;SDS011;16089;59.952;10.818;2022-12-28T09:33:37;6.00;;;1.27;;
28988;SDS011;16089;59.952;10.818;2022-12-28T09:36:21;5.72;;;1.35;;
28988;SDS011;16089;59.952;10.818;2022-12-28T09:38:47;3.67;;;1.25;;
28988;SDS011;16089;59.952;10.818;2022-12-28T09:41:15;3.08;;;1.13;;
28988;SDS011;16089;59.952;10.818;2022-12-28T09:43:46;7.13;;;1.25;;
28988;SDS011;16089;59.952;10.818;2022-12-28T09:46:14;6.72;;;1.45;;
28988;SDS011;16089;59.952;10.818;2022-12-28T09:48:42;2.58;;;1.05;;
28988;SDS011;16089;59.952;10.818;2022-12-28T09:51:10;4.68;;;1.10;;
28988;SDS011;16089;59.952;10.818;2022-12-28T09:53:36;3.92;;;1.17;;
28988;SDS011;16089;59.952;10.818;2022-12-28T09:56:04;3.83;;;1.20;;
28988;SDS011;16089;59.952;10.818;2022-12-28T09:58:32;4.97;;;1.20;;
28988;SDS011;16089;59.952;10.818;2022-12-28T10:00:59;4.28;;;1.27;;
28988;SDS011;16089;59.952;10.818;2022-12-28T10:03:30;3.42;;;1.00;;
28988;SDS011;16089;59.952;10.818;2022-12-28T10:05:58;4.63;;;1.40;;
28988;SDS011;16089;59.952;10.818;2022-12-28T10:08:24;6.28;;;1.50;;
28988;SDS011;16089;59.952;10.818;2022-12-28T10:10:51;3.75;;;1.40;;
28988;SDS011;16089;59.952;10.818;2022-12-28T10:13:18;7.72;;;1.48;;
28988;SDS011;16089;59.952;10.818;2022-12-28T10:15:45;6.47;;;1.42;;
28988;SDS011;16089;59.952;10.818;2022-12-28T10:18:12;4.75;;;1.40;;
28988;SDS011;16089;59.952;10.818;2022-12-28T10:20:40;4.60;;;1.23;;
28988;SDS011;16089;59.952;10.818;2022-12-28T10:23:08;3.95;;;1.40;;
28988;SDS011;16089;59.952;10.818;2022-12-28T10:25:36;3.85;;;1.27;;
28988;SDS011;16089;59.952;10.818;2022-12-28T10:28:04;5.47;;;1.27;;
28988;SDS011;16089;59.952;10.818;2022-12-28T10:30:31;2.75;;;1.25;;
28988;SDS011;16089;59.952;10.818;2022-12-28T10:32:58;2.97;;;1.30;;
28988;SDS011;16089;59.952;10.818;2022-12-28T10:35:26;3.72;;;1.48;;
28988;SDS011;16089;59.952;10.818;2022-12-28T10:37:56;3.72;;;1.05;;
28988;SDS011;16089;59.952;10.818;2022-12-28T10:40:25;3.70;;;1.10;;
28988;SDS011;16089;59.952;10.818;2022-12-28T10:42:52;8.52;;;1.30;;
28988;SDS011;16089;59.952;10.818;2022-12-28T10:45:20;5.32;;;1.20;;
28988;SDS011;16089;59.952;10.818;2022-12-28T10:47:47;2.92;;;1.48;;
28988;SDS011;16089;59.952;10.818;2022-12-28T10:53:01;4.50;;;1.10;;
28988;SDS011;16089;59.952;10.818;2022-12-28T10:55:28;3.88;;;1.08;;
28988;SDS011;16089;59.952;10.818;2022-12-28T10:57:55;3.83;;;0.90;;
28988;SDS011;16089;59.952;10.818;2022-12-28T11:00:21;3.00;;;1.00;;
28988;SDS011;16089;59.952;10.818;2022-12-28T11:02:48;4.90;;;1.10;;
28988;SDS011;16089;59.952;10.818;2022-12-28T11:05:18;5.18;;;0.98;;
28988;SDS011;16089;59.952;10.818;2022-12-28T11:07:48;5.97;;;2.00;;
28988;SDS011;16089;59.952;10.818;2022-12-28T11:10:25;8.77;;;1.75;;
28988;SDS011;16089;59.952;10.818;2022-12-28T11:12:52;2.97;;;1.20;;
28988;SDS011;16089;59.952;10.818;2022-12-28T11:15:19;3.28;;;1.10;;
28988;SDS011;16089;59.952;10.818;2022-12-28T11:17:47;4.28;;;0.80;;
28988;SDS011;16089;59.952;10.818;2022-12-28T11:20:16;9.13;;;0.98;;
28988;SDS011;16089;59.952;10.818;2022-12-28T11:22:43;2.58;;;0.65;;
28988;SDS011;16089;59.952;10.818;2022-12-28T11:25:11;4.50;;;0.77;;
28988;SDS011;16089;59.952;10.818;2022-12-28T11:27:41;4.82;;;1.02;;
28988;SDS011;16089;59.952;10.818;2022-12-28T11:30:11;5.38;;;1.13;;
28988;SDS011;16089;59.952;10.818;2022-12-28T11:32:38;5.45;;;1.38;;
28988;SDS011;16089;59.952;10.818;2022-12-28T11:35:12;4.25;;;0.98;;
28988;SDS011;16089;59.952;10.818;2022-12-28T11:37:47;3.65;;;1.20;;
28988;SDS011;16089;59.952;10.818;2022-12-28T11:40:26;6.75;;;1.05;;
28988;SDS011;16089;59.952;10.818;2022-12-28T11:43:24;4.40;;;0.93;;
28988;SDS011;16089;59.952;10.818;2022-12-28T11:46:04;4.38;;;1.25;;
28988;SDS011;16089;59.952;10.818;2022-12-28T11:48:38;4.40;;;1.10;;
28988;SDS011;16089;59.952;10.818;2022-12-28T11:51:13;5.97;;;0.85;;
28988;SDS011;16089;59.952;10.818;2022-12-28T11:53:50;6.18;;;1.20;;
28988;SDS011;16089;59.952;10.818;2022-12-28T11:56:17;4.60;;;1.05;;
28988;SDS011;16089;59.952;10.818;2022-12-28T11:58:46;4.43;;;0.80;;
28988;SDS011;16089;59.952;10.818;2022-12-28T12:04:07;5.85;;;1.45;;
28988;SDS011;16089;59.952;10.818;2022-12-28T12:09:24;2.28;;;0.90;;
28988;SDS011;16089;59.952;10.818;2022-12-28T12:11:52;2.80;;;1.00;;
28988;SDS011;16089;59.952;10.818;2022-12-28T12:14:20;4.20;;;1.00;;
28988;SDS011;16089;59.952;10.818;2022-12-28T12:16:48;3.90;;;1.10;;
28988;SDS011;16089;59.952;10.818;2022-12-28T12:19:16;3.45;;;1.10;;
28988;SDS011;16089;59.952;10.818;2022-12-28T12:21:45;5.03;;;1.15;;
28988;SDS011;16089;59.952;10.818;2022-12-28T12:24:19;3.42;;;1.08;;
28988;SDS011;16089;59.952;10.818;2022-12-28T12:26:51;4.47;;;1.13;;
28988;SDS011;16089;59.952;10.818;2022-12-28T12:29:20;2.88;;;0.90;;
28988;SDS011;16089;59.952;10.818;2022-12-28T12:31:49;6.15;;;0.85;;
28988;SDS011;16089;59.952;10.818;2022-12-28T12:34:19;2.53;;;0.70;;
28988;SDS011;16089;59.952;10.818;2022-12-28T12:39:35;4.85;;;0.70;;
28988;SDS011;16089;59.952;10.818;2022-12-28T12:42:07;2.92;;;0.88;;
28988;SDS011;16089;59.952;10.818;2022-12-28T12:44:37;4.05;;;0.90;;
28988;SDS011;16089;59.952;10.818;2022-12-28T12:49:45;3.83;;;0.88;;
28988;SDS011;16089;59.952;10.818;2022-12-28T12:52:17;3.88;;;0.77;;
28988;SDS011;16089;59.952;10.818;2022-12-28T12:54:49;3.58;;;1.00;;
28988;SDS011;16089;59.952;10.818;2022-12-28T12:57:20;7.13;;;1.00;;
28988;SDS011;16089;59.952;10.818;2022-12-28T12:59:55;4.25;;;0.90;;
28988;SDS011;16089;59.952;10.818;2022-12-28T13:02:31;6.28;;;1.10;;
28988;SDS011;16089;59.952;10.818;2022-12-28T13:05:01;2.63;;;0.90;;
28988;SDS011;16089;59.952;10.818;2022-12-28T13:07:28;2.08;;;0.70;;
28988;SDS011;16089;59.952;10.818;2022-12-28T13:09:55;5.05;;;1.25;;
28988;SDS011;16089;59.952;10.818;2022-12-28T13:12:25;3.80;;;0.82;;
28988;SDS011;16089;59.952;10.818;2022-12-28T13:14:52;3.40;;;1.45;;
28988;SDS011;16089;59.952;10.818;2022-12-28T13:17:21;5.22;;;1.05;;
28988;SDS011;16089;59.952;10.818;2022-12-28T13:19:47;3.67;;;0.80;;
28988;SDS011;16089;59.952;10.818;2022-12-28T13:22:27;11.20;;;2.97;;
28988;SDS011;16089;59.952;10.818;2022-12-28T13:24:54;6.50;;;1.20;;
28988;SDS011;16089;59.952;10.818;2022-12-28T13:27:20;4.28;;;0.90;;
28988;SDS011;16089;59.952;10.818;2022-12-28T13:29:49;3.72;;;0.75;;
28988;SDS011;16089;59.952;10.818;2022-12-28T13:32:23;2.85;;;1.00;;
28988;SDS011;16089;59.952;10.818;2022-12-28T13:34:49;2.05;;;0.73;;
28988;SDS011;16089;59.952;10.818;2022-12-28T13:37:15;3.17;;;0.80;;
28988;SDS011;16089;59.952;10.818;2022-12-28T13:39:43;3.55;;;1.02;;
28988;SDS011;16089;59.952;10.818;2022-12-28T13:42:12;2.50;;;0.90;;
28988;SDS011;16089;59.952;10.818;2022-12-28T13:44:40;4.78;;;1.67;;
28988;SDS011;16089;59.952;10.818;2022-12-28T13:47:09;5.03;;;0.98;;
28988;SDS011;16089;59.952;10.818;2022-12-28T13:49:38;2.72;;;0.95;;
28988;SDS011;16089;59.952;10.818;2022-12-28T13:52:06;5.45;;;0.80;;
28988;SDS011;16089;59.952;10.818;2022-12-28T13:54:33;3.10;;;0.82;;
28988;SDS011;16089;59.952;10.818;2022-12-28T13:57:03;3.28;;;0.80;;
28988;SDS011;16089;59.952;10.818;2022-12-28T13:59:31;3.03;;;0.93;;
28988;SDS011;16089;59.952;10.818;2022-12-28T14:01:59;1.77;;;0.65;;
28988;SDS011;16089;59.952;10.818;2022-12-28T14:04:26;3.13;;;0.90;;
28988;SDS011;16089;59.952;10.818;2022-12-28T14:06:54;2.80;;;0.70;;
28988;SDS011;16089;59.952;10.818;2022-12-28T14:09:20;4.38;;;1.00;;
28988;SDS011;16089;59.952;10.818;2022-12-28T14:11:47;3.88;;;0.70;;
28988;SDS011;16089;59.952;10.818;2022-12-28T14:14:14;10.55;;;2.55;;
28988;SDS011;16089;59.952;10.818;2022-12-28T14:16:41;2.97;;;0.80;;
28988;SDS011;16089;59.952;10.818;2022-12-28T14:19:07;1.73;;;0.73;;
28988;SDS011;16089;59.952;10.818;2022-12-28T14:21:34;3.15;;;1.08;;
28988;SDS011;16089;59.952;10.818;2022-12-28T14:24:01;2.45;;;0.65;;
28988;SDS011;16089;59.952;10.818;2022-12-28T14:26:28;2.90;;;1.00;;
28988;SDS011;16089;59.952;10.818;2022-12-28T14:28:54;6.93;;;1.00;;
28988;SDS011;16089;59.952;10.818;2022-12-28T14:31:23;5.50;;;1.10;;
28988;SDS011;16089;59.952;10.818;2022-12-28T14:33:51;2.35;;;0.60;;
28988;SDS011;16089;59.952;10.818;2022-12-28T14:36:19;4.25;;;1.13;;
28988;SDS011;16089;59.952;10.818;2022-12-28T14:38:46;2.25;;;0.50;;
28988;SDS011;16089;59.952;10.818;2022-12-28T14:41:13;3.42;;;1.02;;
28988;SDS011;16089;59.952;10.818;2022-12-28T14:43:41;4.03;;;1.00;;
28988;SDS011;16089;59.952;10.818;2022-12-28T14:46:15;5.25;;;0.80;;
28988;SDS011;16089;59.952;10.818;2022-12-28T14:48:43;3.63;;;0.77;;
28988;SDS011;16089;59.952;10.818;2022-12-28T14:51:23;3.90;;;1.00;;
28988;SDS011;16089;59.952;10.818;2022-12-28T14:54:02;2.47;;;0.93;;